sensor_id;sensor_type;location;lat;lon;timestamp;P1;durP1;ratioP1;P2;durP2;ratioP2
45198;SDS011;30941;46.422;18.772;2023-07-16T00:01:35;14.32;;;11.75;;
45198;SDS011;30941;46.422;18.772;2023-07-16T00:04:01;18.30;;;12.25;;
45198;SDS011;30941;46.422;18.772;2023-07-16T00:06:26;13.82;;;12.40;;
45198;SDS011;30941;46.422;18.772;2023-07-16T00:08:51;12.90;;;11.60;;
45198;SDS011;30941;46.422;18.772;2023-07-16T00:11:17;16.35;;;12.38;;
45198;SDS011;30941;46.422;18.772;2023-07-16T00:13:42;16.65;;;12.60;;
45198;SDS011;30941;46.422;18.772;2023-07-16T00:16:12;18.77;;;12.80;;
45198;SDS011;30941;46.422;18.772;2023-07-16T00:18:37;15.27;;;12.73;;
45198;SDS011;30941;46.422;18.772;2023-07-16T00:21:03;15.80;;;13.93;;
45198;SDS011;30941;46.422;18.772;2023-07-16T00:23:28;16.50;;;13.05;;
45198;SDS011;30941;46.422;18.772;2023-07-16T00:25:54;14.98;;;12.75;;
45198;SDS011;30941;46.422;18.772;2023-07-16T00:28:19;16.08;;;12.70;;
45198;SDS011;30941;46.422;18.772;2023-07-16T00:30:44;16.70;;;12.68;;
45198;SDS011;30941;46.422;18.772;2023-07-16T00:33:10;13.43;;;12.13;;
45198;SDS011;30941;46.422;18.772;2023-07-16T00:35:35;22.40;;;13.25;;
45198;SDS011;30941;46.422;18.772;2023-07-16T00:38:00;16.95;;;14.55;;
45198;SDS011;30941;46.422;18.772;2023-07-16T00:40:26;14.52;;;12.88;;
45198;SDS011;30941;46.422;18.772;2023-07-16T00:42:51;15.43;;;12.55;;
45198;SDS011;30941;46.422;18.772;2023-07-16T00:45:17;13.38;;;12.07;;
45198;SDS011;30941;46.422;18.772;2023-07-16T00:47:44;15.90;;;12.85;;
45198;SDS011;30941;46.422;18.772;2023-07-16T00:50:10;15.30;;;12.90;;
45198;SDS011;30941;46.422;18.772;2023-07-16T00:52:37;21.05;;;12.85;;
45198;SDS011;30941;46.422;18.772;2023-07-16T00:55:02;17.35;;;13.13;;
45198;SDS011;30941;46.422;18.772;2023-07-16T00:57:29;16.23;;;13.57;;
45198;SDS011;30941;46.422;18.772;2023-07-16T00:59:54;15.50;;;13.15;;
45198;SDS011;30941;46.422;18.772;2023-07-16T01:02:20;16.50;;;12.98;;
45198;SDS011;30941;46.422;18.772;2023-07-16T01:04:45;15.82;;;12.85;;
45198;SDS011;30941;46.422;18.772;2023-07-16T01:07:11;15.13;;;13.05;;
45198;SDS011;30941;46.422;18.772;2023-07-16T01:09:37;15.82;;;12.85;;
45198;SDS011;30941;46.422;18.772;2023-07-16T01:12:05;18.85;;;13.20;;
45198;SDS011;30941;46.422;18.772;2023-07-16T01:14:32;15.25;;;12.80;;
45198;SDS011;30941;46.422;18.772;2023-07-16T01:16:57;15.23;;;12.02;;
45198;SDS011;30941;46.422;18.772;2023-07-16T01:19:24;16.80;;;12.13;;
45198;SDS011;30941;46.422;18.772;2023-07-16T01:30:37;15.10;;;11.63;;
45198;SDS011;30941;46.422;18.772;2023-07-16T01:33:04;13.75;;;11.82;;
45198;SDS011;30941;46.422;18.772;2023-07-16T01:35:30;14.98;;;12.25;;
45198;SDS011;30941;46.422;18.772;2023-07-16T01:37:55;13.02;;;11.55;;
45198;SDS011;30941;46.422;18.772;2023-07-16T01:40:20;12.95;;;11.70;;
45198;SDS011;30941;46.422;18.772;2023-07-16T01:42:46;13.05;;;11.55;;
45198;SDS011;30941;46.422;18.772;2023-07-16T01:45:11;14.55;;;12.18;;
45198;SDS011;30941;46.422;18.772;2023-07-16T01:47:44;16.75;;;12.27;;
45198;SDS011;30941;46.422;18.772;2023-07-16T01:50:15;12.23;;;10.70;;
45198;SDS011;30941;46.422;18.772;2023-07-16T01:52:41;14.80;;;12.20;;
45198;SDS011;30941;46.422;18.772;2023-07-16T01:55:06;13.18;;;11.23;;
45198;SDS011;30941;46.422;18.772;2023-07-16T01:57:32;13.00;;;10.70;;
45198;SDS011;30941;46.422;18.772;2023-07-16T01:59:57;12.00;;;10.63;;
45198;SDS011;30941;46.422;18.772;2023-07-16T02:02:23;18.33;;;11.20;;
45198;SDS011;30941;46.422;18.772;2023-07-16T02:04:48;12.07;;;10.43;;
45198;SDS011;30941;46.422;18.772;2023-07-16T02:07:14;14.18;;;11.30;;
45198;SDS011;30941;46.422;18.772;2023-07-16T02:09:39;14.82;;;11.20;;
45198;SDS011;30941;46.422;18.772;2023-07-16T02:12:05;13.85;;;10.65;;
45198;SDS011;30941;46.422;18.772;2023-07-16T02:14:31;12.32;;;10.60;;
45198;SDS011;30941;46.422;18.772;2023-07-16T02:16:56;13.55;;;12.10;;
45198;SDS011;30941;46.422;18.772;2023-07-16T02:19:22;13.43;;;11.18;;
45198;SDS011;30941;46.422;18.772;2023-07-16T02:21:48;15.23;;;10.68;;
45198;SDS011;30941;46.422;18.772;2023-07-16T02:24:13;11.18;;;9.95;;
45198;SDS011;30941;46.422;18.772;2023-07-16T02:26:39;12.20;;;10.43;;
45198;SDS011;30941;46.422;18.772;2023-07-16T02:29:04;13.40;;;11.30;;
45198;SDS011;30941;46.422;18.772;2023-07-16T02:31:33;14.70;;;11.05;;
45198;SDS011;30941;46.422;18.772;2023-07-16T02:33:59;12.20;;;10.10;;
45198;SDS011;30941;46.422;18.772;2023-07-16T02:36:24;14.52;;;10.50;;
45198;SDS011;30941;46.422;18.772;2023-07-16T02:38:49;13.45;;;11.32;;
45198;SDS011;30941;46.422;18.772;2023-07-16T02:41:15;13.82;;;10.38;;
45198;SDS011;30941;46.422;18.772;2023-07-16T02:43:40;13.70;;;10.43;;
45198;SDS011;30941;46.422;18.772;2023-07-16T02:46:05;12.43;;;10.25;;
45198;SDS011;30941;46.422;18.772;2023-07-16T02:48:31;15.60;;;9.48;;
45198;SDS011;30941;46.422;18.772;2023-07-16T02:50:56;12.43;;;10.85;;
45198;SDS011;30941;46.422;18.772;2023-07-16T02:53:21;13.60;;;9.73;;
45198;SDS011;30941;46.422;18.772;2023-07-16T02:55:47;14.38;;;10.15;;
45198;SDS011;30941;46.422;18.772;2023-07-16T02:58:12;13.02;;;8.98;;
45198;SDS011;30941;46.422;18.772;2023-07-16T03:00:38;11.20;;;9.30;;
45198;SDS011;30941;46.422;18.772;2023-07-16T03:03:03;11.85;;;9.82;;
45198;SDS011;30941;46.422;18.772;2023-07-16T03:05:29;11.75;;;9.40;;
45198;SDS011;30941;46.422;18.772;2023-07-16T03:07:54;13.98;;;8.93;;
45198;SDS011;30941;46.422;18.772;2023-07-16T03:10:20;10.00;;;9.00;;
45198;SDS011;30941;46.422;18.772;2023-07-16T03:12:46;10.82;;;8.85;;
45198;SDS011;30941;46.422;18.772;2023-07-16T03:15:11;10.48;;;9.45;;
45198;SDS011;30941;46.422;18.772;2023-07-16T03:17:37;14.20;;;10.20;;
45198;SDS011;30941;46.422;18.772;2023-07-16T03:20:02;11.18;;;9.30;;
45198;SDS011;30941;46.422;18.772;2023-07-16T03:22:30;10.90;;;9.75;;
45198;SDS011;30941;46.422;18.772;2023-07-16T03:24:55;10.55;;;9.05;;
45198;SDS011;30941;46.422;18.772;2023-07-16T03:27:21;10.98;;;8.90;;
45198;SDS011;30941;46.422;18.772;2023-07-16T03:29:46;11.63;;;10.13;;
45198;SDS011;30941;46.422;18.772;2023-07-16T03:32:11;11.73;;;9.63;;
45198;SDS011;30941;46.422;18.772;2023-07-16T03:34:37;13.52;;;9.38;;
45198;SDS011;30941;46.422;18.772;2023-07-16T03:37:02;12.70;;;10.13;;
45198;SDS011;30941;46.422;18.772;2023-07-16T03:39:27;10.50;;;9.18;;
45198;SDS011;30941;46.422;18.772;2023-07-16T03:41:53;9.98;;;8.98;;
45198;SDS011;30941;46.422;18.772;2023-07-16T03:44:18;13.00;;;9.07;;
45198;SDS011;30941;46.422;18.772;2023-07-16T03:46:43;12.82;;;8.77;;
45198;SDS011;30941;46.422;18.772;2023-07-16T03:49:09;10.50;;;8.45;;
45198;SDS011;30941;46.422;18.772;2023-07-16T03:51:34;10.43;;;8.55;;
45198;SDS011;30941;46.422;18.772;2023-07-16T03:54:00;15.15;;;8.93;;
45198;SDS011;30941;46.422;18.772;2023-07-16T03:56:25;11.65;;;8.43;;
45198;SDS011;30941;46.422;18.772;2023-07-16T03:58:50;10.50;;;8.38;;
45198;SDS011;30941;46.422;18.772;2023-07-16T04:01:16;11.27;;;8.35;;
45198;SDS011;30941;46.422;18.772;2023-07-16T04:03:41;10.65;;;8.30;;
45198;SDS011;30941;46.422;18.772;2023-07-16T04:06:08;9.80;;;8.55;;
45198;SDS011;30941;46.422;18.772;2023-07-16T04:08:36;10.73;;;8.70;;
45198;SDS011;30941;46.422;18.772;2023-07-16T04:11:05;11.98;;;8.93;;
45198;SDS011;30941;46.422;18.772;2023-07-16T04:13:31;13.52;;;8.77;;
45198;SDS011;30941;46.422;18.772;2023-07-16T04:15:56;12.82;;;8.20;;
45198;SDS011;30941;46.422;18.772;2023-07-16T04:18:23;9.15;;;8.13;;
45198;SDS011;30941;46.422;18.772;2023-07-16T04:20:48;11.40;;;7.70;;
45198;SDS011;30941;46.422;18.772;2023-07-16T04:23:14;10.15;;;7.60;;
45198;SDS011;30941;46.422;18.772;2023-07-16T04:25:39;11.30;;;7.78;;
45198;SDS011;30941;46.422;18.772;2023-07-16T04:28:04;8.85;;;7.72;;
45198;SDS011;30941;46.422;18.772;2023-07-16T04:30:30;10.10;;;8.80;;
45198;SDS011;30941;46.422;18.772;2023-07-16T04:32:55;12.68;;;8.02;;
45198;SDS011;30941;46.422;18.772;2023-07-16T04:35:21;10.55;;;8.30;;
45198;SDS011;30941;46.422;18.772;2023-07-16T04:37:46;11.15;;;7.53;;
45198;SDS011;30941;46.422;18.772;2023-07-16T04:40:11;10.52;;;8.23;;
45198;SDS011;30941;46.422;18.772;2023-07-16T04:42:37;11.05;;;7.63;;
45198;SDS011;30941;46.422;18.772;2023-07-16T04:45:03;8.65;;;7.65;;
45198;SDS011;30941;46.422;18.772;2023-07-16T04:47:30;11.43;;;7.57;;
45198;SDS011;30941;46.422;18.772;2023-07-16T04:49:57;10.82;;;7.57;;
45198;SDS011;30941;46.422;18.772;2023-07-16T04:52:23;11.10;;;7.25;;
45198;SDS011;30941;46.422;18.772;2023-07-16T04:54:48;13.38;;;7.90;;
45198;SDS011;30941;46.422;18.772;2023-07-16T04:57:14;10.55;;;6.65;;
45198;SDS011;30941;46.422;18.772;2023-07-16T04:59:39;7.22;;;6.53;;
45198;SDS011;30941;46.422;18.772;2023-07-16T05:02:05;9.93;;;6.47;;
45198;SDS011;30941;46.422;18.772;2023-07-16T05:04:31;11.10;;;6.55;;
45198;SDS011;30941;46.422;18.772;2023-07-16T05:06:57;9.70;;;7.03;;
45198;SDS011;30941;46.422;18.772;2023-07-16T05:09:23;8.57;;;6.72;;
45198;SDS011;30941;46.422;18.772;2023-07-16T05:11:48;12.07;;;6.70;;
45198;SDS011;30941;46.422;18.772;2023-07-16T05:14:13;9.40;;;6.88;;
45198;SDS011;30941;46.422;18.772;2023-07-16T05:16:39;8.35;;;6.30;;
45198;SDS011;30941;46.422;18.772;2023-07-16T05:19:04;10.45;;;6.30;;
45198;SDS011;30941;46.422;18.772;2023-07-16T05:21:29;13.68;;;7.13;;
45198;SDS011;30941;46.422;18.772;2023-07-16T05:23:55;9.32;;;6.30;;
45198;SDS011;30941;46.422;18.772;2023-07-16T05:26:20;9.77;;;6.80;;
45198;SDS011;30941;46.422;18.772;2023-07-16T05:28:45;9.95;;;6.72;;
45198;SDS011;30941;46.422;18.772;2023-07-16T05:31:11;12.05;;;6.85;;
45198;SDS011;30941;46.422;18.772;2023-07-16T05:33:36;10.73;;;6.35;;
45198;SDS011;30941;46.422;18.772;2023-07-16T05:36:01;7.53;;;6.13;;
45198;SDS011;30941;46.422;18.772;2023-07-16T05:38:27;8.15;;;6.25;;
45198;SDS011;30941;46.422;18.772;2023-07-16T05:40:52;10.43;;;5.85;;
45198;SDS011;30941;46.422;18.772;2023-07-16T05:43:18;8.52;;;6.50;;
45198;SDS011;30941;46.422;18.772;2023-07-16T05:45:43;9.60;;;6.38;;
45198;SDS011;30941;46.422;18.772;2023-07-16T05:48:08;8.45;;;6.35;;
45198;SDS011;30941;46.422;18.772;2023-07-16T05:50:34;8.35;;;6.60;;
45198;SDS011;30941;46.422;18.772;2023-07-16T05:52:59;10.10;;;6.50;;
45198;SDS011;30941;46.422;18.772;2023-07-16T05:55:24;7.90;;;6.63;;
45198;SDS011;30941;46.422;18.772;2023-07-16T05:57:50;10.75;;;6.20;;
45198;SDS011;30941;46.422;18.772;2023-07-16T06:00:16;8.93;;;6.07;;
45198;SDS011;30941;46.422;18.772;2023-07-16T06:02:42;9.10;;;6.28;;
45198;SDS011;30941;46.422;18.772;2023-07-16T06:05:07;7.57;;;6.45;;
45198;SDS011;30941;46.422;18.772;2023-07-16T06:07:33;8.18;;;5.88;;
45198;SDS011;30941;46.422;18.772;2023-07-16T06:09:58;9.60;;;6.53;;
45198;SDS011;30941;46.422;18.772;2023-07-16T06:12:24;11.05;;;7.03;;
45198;SDS011;30941;46.422;18.772;2023-07-16T06:14:49;8.90;;;6.38;;
45198;SDS011;30941;46.422;18.772;2023-07-16T06:17:14;14.88;;;6.82;;
45198;SDS011;30941;46.422;18.772;2023-07-16T06:19:40;9.10;;;6.90;;
45198;SDS011;30941;46.422;18.772;2023-07-16T06:22:05;11.50;;;6.55;;
45198;SDS011;30941;46.422;18.772;2023-07-16T06:24:31;9.48;;;6.47;;
45198;SDS011;30941;46.422;18.772;2023-07-16T06:26:56;11.02;;;7.32;;
45198;SDS011;30941;46.422;18.772;2023-07-16T06:29:21;11.07;;;6.78;;
45198;SDS011;30941;46.422;18.772;2023-07-16T06:31:57;7.65;;;6.40;;
45198;SDS011;30941;46.422;18.772;2023-07-16T06:34:23;12.93;;;7.40;;
45198;SDS011;30941;46.422;18.772;2023-07-16T06:36:49;8.05;;;6.68;;
45198;SDS011;30941;46.422;18.772;2023-07-16T06:39:15;11.05;;;6.55;;
45198;SDS011;30941;46.422;18.772;2023-07-16T06:41:40;12.63;;;6.22;;
45198;SDS011;30941;46.422;18.772;2023-07-16T06:44:05;9.05;;;6.45;;
45198;SDS011;30941;46.422;18.772;2023-07-16T06:46:31;9.85;;;6.28;;
45198;SDS011;30941;46.422;18.772;2023-07-16T06:48:56;8.95;;;6.30;;
45198;SDS011;30941;46.422;18.772;2023-07-16T06:51:22;10.50;;;6.13;;
45198;SDS011;30941;46.422;18.772;2023-07-16T06:53:47;12.88;;;6.85;;
45198;SDS011;30941;46.422;18.772;2023-07-16T06:56:12;8.82;;;6.65;;
45198;SDS011;30941;46.422;18.772;2023-07-16T06:58:38;9.25;;;6.35;;
45198;SDS011;30941;46.422;18.772;2023-07-16T07:01:03;10.82;;;6.60;;
45198;SDS011;30941;46.422;18.772;2023-07-16T07:03:29;9.05;;;6.63;;
45198;SDS011;30941;46.422;18.772;2023-07-16T07:05:54;8.85;;;7.20;;
45198;SDS011;30941;46.422;18.772;2023-07-16T07:08:19;8.40;;;6.70;;
45198;SDS011;30941;46.422;18.772;2023-07-16T07:10:46;9.02;;;6.68;;
45198;SDS011;30941;46.422;18.772;2023-07-16T07:13:13;11.02;;;7.07;;
45198;SDS011;30941;46.422;18.772;2023-07-16T07:15:38;10.25;;;6.43;;
45198;SDS011;30941;46.422;18.772;2023-07-16T07:18:04;9.82;;;6.55;;
45198;SDS011;30941;46.422;18.772;2023-07-16T07:20:29;14.15;;;7.25;;
45198;SDS011;30941;46.422;18.772;2023-07-16T07:22:54;6.97;;;6.22;;
45198;SDS011;30941;46.422;18.772;2023-07-16T07:25:20;8.48;;;6.40;;
45198;SDS011;30941;46.422;18.772;2023-07-16T07:27:45;8.50;;;6.88;;
45198;SDS011;30941;46.422;18.772;2023-07-16T07:30:11;10.02;;;7.18;;
45198;SDS011;30941;46.422;18.772;2023-07-16T07:32:36;13.02;;;6.93;;
45198;SDS011;30941;46.422;18.772;2023-07-16T07:35:03;10.70;;;7.32;;
45198;SDS011;30941;46.422;18.772;2023-07-16T07:37:29;8.13;;;6.90;;
45198;SDS011;30941;46.422;18.772;2023-07-16T07:39:54;10.05;;;6.75;;
45198;SDS011;30941;46.422;18.772;2023-07-16T07:42:19;10.90;;;7.47;;
45198;SDS011;30941;46.422;18.772;2023-07-16T07:44:45;10.40;;;6.38;;
45198;SDS011;30941;46.422;18.772;2023-07-16T07:47:10;12.88;;;7.05;;
45198;SDS011;30941;46.422;18.772;2023-07-16T07:49:35;18.85;;;8.27;;
45198;SDS011;30941;46.422;18.772;2023-07-16T07:52:01;12.20;;;7.70;;
45198;SDS011;30941;46.422;18.772;2023-07-16T07:54:26;9.77;;;7.05;;
45198;SDS011;30941;46.422;18.772;2023-07-16T07:56:52;8.80;;;7.75;;
45198;SDS011;30941;46.422;18.772;2023-07-16T07:59:17;9.95;;;7.40;;
45198;SDS011;30941;46.422;18.772;2023-07-16T08:01:42;10.07;;;8.05;;
45198;SDS011;30941;46.422;18.772;2023-07-16T08:04:08;10.55;;;7.97;;
45198;SDS011;30941;46.422;18.772;2023-07-16T08:06:33;8.70;;;7.82;;
45198;SDS011;30941;46.422;18.772;2023-07-16T08:08:59;9.48;;;7.32;;
45198;SDS011;30941;46.422;18.772;2023-07-16T08:11:24;8.45;;;7.60;;
45198;SDS011;30941;46.422;18.772;2023-07-16T08:13:49;12.43;;;8.40;;
45198;SDS011;30941;46.422;18.772;2023-07-16T08:16:15;8.90;;;7.93;;
45198;SDS011;30941;46.422;18.772;2023-07-16T08:18:40;10.25;;;7.68;;
45198;SDS011;30941;46.422;18.772;2023-07-16T08:21:05;10.45;;;8.30;;
45198;SDS011;30941;46.422;18.772;2023-07-16T08:23:31;8.70;;;7.68;;
45198;SDS011;30941;46.422;18.772;2023-07-16T08:25:56;10.25;;;7.00;;
45198;SDS011;30941;46.422;18.772;2023-07-16T08:28:22;9.73;;;7.70;;
45198;SDS011;30941;46.422;18.772;2023-07-16T08:30:47;11.90;;;7.20;;
45198;SDS011;30941;46.422;18.772;2023-07-16T08:33:13;7.75;;;6.60;;
45198;SDS011;30941;46.422;18.772;2023-07-16T08:35:39;10.13;;;7.75;;
45198;SDS011;30941;46.422;18.772;2023-07-16T08:38:05;9.38;;;6.18;;
45198;SDS011;30941;46.422;18.772;2023-07-16T08:40:34;8.68;;;6.88;;
45198;SDS011;30941;46.422;18.772;2023-07-16T08:43:00;8.55;;;7.53;;
45198;SDS011;30941;46.422;18.772;2023-07-16T08:45:28;8.85;;;6.80;;
45198;SDS011;30941;46.422;18.772;2023-07-16T08:47:54;10.00;;;6.93;;
45198;SDS011;30941;46.422;18.772;2023-07-16T08:50:21;9.68;;;6.88;;
45198;SDS011;30941;46.422;18.772;2023-07-16T08:52:47;14.25;;;7.50;;
45198;SDS011;30941;46.422;18.772;2023-07-16T08:55:12;10.73;;;7.75;;
45198;SDS011;30941;46.422;18.772;2023-07-16T08:57:38;8.68;;;6.47;;
45198;SDS011;30941;46.422;18.772;2023-07-16T09:00:05;10.82;;;7.43;;
45198;SDS011;30941;46.422;18.772;2023-07-16T09:02:34;7.18;;;6.47;;
45198;SDS011;30941;46.422;18.772;2023-07-16T09:04:59;8.43;;;7.43;;
45198;SDS011;30941;46.422;18.772;2023-07-16T09:07:25;11.35;;;6.88;;
45198;SDS011;30941;46.422;18.772;2023-07-16T09:09:57;9.52;;;6.75;;
45198;SDS011;30941;46.422;18.772;2023-07-16T09:12:25;9.05;;;6.25;;
45198;SDS011;30941;46.422;18.772;2023-07-16T09:14:51;9.02;;;5.97;;
45198;SDS011;30941;46.422;18.772;2023-07-16T09:17:23;9.13;;;6.38;;
45198;SDS011;30941;46.422;18.772;2023-07-16T09:19:50;11.60;;;7.10;;
45198;SDS011;30941;46.422;18.772;2023-07-16T09:22:19;8.80;;;6.45;;
45198;SDS011;30941;46.422;18.772;2023-07-16T09:24:45;7.82;;;6.45;;
45198;SDS011;30941;46.422;18.772;2023-07-16T09:27:11;7.95;;;6.50;;
45198;SDS011;30941;46.422;18.772;2023-07-16T09:29:37;7.55;;;6.70;;
45198;SDS011;30941;46.422;18.772;2023-07-16T09:32:03;9.43;;;6.25;;
45198;SDS011;30941;46.422;18.772;2023-07-16T09:34:30;7.15;;;6.40;;
45198;SDS011;30941;46.422;18.772;2023-07-16T09:37:00;9.82;;;6.32;;
45198;SDS011;30941;46.422;18.772;2023-07-16T09:39:26;14.25;;;6.70;;
45198;SDS011;30941;46.422;18.772;2023-07-16T09:41:52;8.98;;;6.38;;
45198;SDS011;30941;46.422;18.772;2023-07-16T09:44:18;8.30;;;6.82;;
45198;SDS011;30941;46.422;18.772;2023-07-16T09:46:44;9.18;;;7.65;;
45198;SDS011;30941;46.422;18.772;2023-07-16T09:49:10;7.55;;;6.47;;
45198;SDS011;30941;46.422;18.772;2023-07-16T09:51:36;9.63;;;6.28;;
45198;SDS011;30941;46.422;18.772;2023-07-16T09:54:03;9.55;;;6.18;;
45198;SDS011;30941;46.422;18.772;2023-07-16T09:56:32;9.02;;;5.72;;
45198;SDS011;30941;46.422;18.772;2023-07-16T09:59:00;8.85;;;5.65;;
45198;SDS011;30941;46.422;18.772;2023-07-16T10:01:26;6.47;;;5.03;;
45198;SDS011;30941;46.422;18.772;2023-07-16T10:03:53;6.45;;;4.80;;
45198;SDS011;30941;46.422;18.772;2023-07-16T10:06:18;7.35;;;4.90;;
45198;SDS011;30941;46.422;18.772;2023-07-16T10:08:50;8.07;;;5.32;;
45198;SDS011;30941;46.422;18.772;2023-07-16T10:11:16;8.23;;;5.80;;
45198;SDS011;30941;46.422;18.772;2023-07-16T10:13:42;7.68;;;5.90;;
45198;SDS011;30941;46.422;18.772;2023-07-16T10:16:08;8.30;;;5.85;;
45198;SDS011;30941;46.422;18.772;2023-07-16T10:18:36;6.80;;;5.45;;
45198;SDS011;30941;46.422;18.772;2023-07-16T10:21:08;8.73;;;5.47;;
45198;SDS011;30941;46.422;18.772;2023-07-16T10:23:37;7.65;;;5.75;;
45198;SDS011;30941;46.422;18.772;2023-07-16T10:26:08;7.45;;;4.30;;
45198;SDS011;30941;46.422;18.772;2023-07-16T10:28:38;6.22;;;4.18;;
45198;SDS011;30941;46.422;18.772;2023-07-16T10:31:04;7.25;;;3.90;;
45198;SDS011;30941;46.422;18.772;2023-07-16T10:33:32;8.00;;;4.38;;
45198;SDS011;30941;46.422;18.772;2023-07-16T10:35:59;10.27;;;4.43;;
45198;SDS011;30941;46.422;18.772;2023-07-16T10:38:25;6.68;;;4.50;;
45198;SDS011;30941;46.422;18.772;2023-07-16T10:40:50;6.82;;;4.07;;
45198;SDS011;30941;46.422;18.772;2023-07-16T10:43:16;10.43;;;5.32;;
45198;SDS011;30941;46.422;18.772;2023-07-16T10:45:41;12.63;;;4.72;;
45198;SDS011;30941;46.422;18.772;2023-07-16T10:48:07;7.75;;;4.82;;
45198;SDS011;30941;46.422;18.772;2023-07-16T10:50:33;6.15;;;4.72;;
45198;SDS011;30941;46.422;18.772;2023-07-16T10:52:59;8.82;;;4.10;;
45198;SDS011;30941;46.422;18.772;2023-07-16T10:55:25;6.18;;;4.63;;
45198;SDS011;30941;46.422;18.772;2023-07-16T10:57:51;6.93;;;4.50;;
45198;SDS011;30941;46.422;18.772;2023-07-16T11:00:18;6.97;;;4.40;;
45198;SDS011;30941;46.422;18.772;2023-07-16T11:02:44;7.43;;;4.75;;
45198;SDS011;30941;46.422;18.772;2023-07-16T11:05:10;8.18;;;4.82;;
45198;SDS011;30941;46.422;18.772;2023-07-16T11:07:36;6.82;;;5.00;;
45198;SDS011;30941;46.422;18.772;2023-07-16T11:10:02;5.88;;;4.18;;
45198;SDS011;30941;46.422;18.772;2023-07-16T11:12:28;8.43;;;5.22;;
45198;SDS011;30941;46.422;18.772;2023-07-16T11:14:54;9.57;;;5.40;;
45198;SDS011;30941;46.422;18.772;2023-07-16T11:17:20;7.43;;;4.80;;
45198;SDS011;30941;46.422;18.772;2023-07-16T11:19:48;9.23;;;5.13;;
45198;SDS011;30941;46.422;18.772;2023-07-16T11:22:14;10.27;;;5.03;;
45198;SDS011;30941;46.422;18.772;2023-07-16T11:24:41;6.45;;;4.93;;
45198;SDS011;30941;46.422;18.772;2023-07-16T11:29:47;9.02;;;5.10;;
45198;SDS011;30941;46.422;18.772;2023-07-16T11:32:13;7.30;;;5.13;;
45198;SDS011;30941;46.422;18.772;2023-07-16T11:34:51;8.15;;;5.10;;
45198;SDS011;30941;46.422;18.772;2023-07-16T11:37:17;8.65;;;5.13;;
45198;SDS011;30941;46.422;18.772;2023-07-16T11:39:43;8.98;;;4.72;;
45198;SDS011;30941;46.422;18.772;2023-07-16T11:42:08;8.25;;;5.30;;
45198;SDS011;30941;46.422;18.772;2023-07-16T11:44:34;9.90;;;5.50;;
45198;SDS011;30941;46.422;18.772;2023-07-16T11:47:00;7.90;;;5.13;;
45198;SDS011;30941;46.422;18.772;2023-07-16T11:49:25;6.70;;;5.10;;
45198;SDS011;30941;46.422;18.772;2023-07-16T11:51:51;8.65;;;5.38;;
45198;SDS011;30941;46.422;18.772;2023-07-16T11:54:16;9.13;;;4.85;;
45198;SDS011;30941;46.422;18.772;2023-07-16T11:56:41;6.05;;;4.90;;
45198;SDS011;30941;46.422;18.772;2023-07-16T11:59:07;10.88;;;5.20;;
45198;SDS011;30941;46.422;18.772;2023-07-16T12:01:32;7.95;;;5.55;;
45198;SDS011;30941;46.422;18.772;2023-07-16T12:03:57;8.00;;;5.30;;
45198;SDS011;30941;46.422;18.772;2023-07-16T12:06:23;10.02;;;5.57;;
45198;SDS011;30941;46.422;18.772;2023-07-16T12:08:48;6.85;;;4.95;;
45198;SDS011;30941;46.422;18.772;2023-07-16T12:11:13;9.25;;;5.05;;
45198;SDS011;30941;46.422;18.772;2023-07-16T12:13:39;7.57;;;5.00;;
45198;SDS011;30941;46.422;18.772;2023-07-16T12:16:04;20.23;;;6.22;;
45198;SDS011;30941;46.422;18.772;2023-07-16T12:18:30;9.40;;;5.53;;
45198;SDS011;30941;46.422;18.772;2023-07-16T12:20:56;7.32;;;5.30;;
45198;SDS011;30941;46.422;18.772;2023-07-16T12:23:21;6.18;;;4.93;;
45198;SDS011;30941;46.422;18.772;2023-07-16T12:25:47;5.93;;;5.00;;
45198;SDS011;30941;46.422;18.772;2023-07-16T12:28:13;6.65;;;5.20;;
45198;SDS011;30941;46.422;18.772;2023-07-16T12:30:39;8.80;;;5.65;;
45198;SDS011;30941;46.422;18.772;2023-07-16T12:33:04;6.78;;;4.85;;
45198;SDS011;30941;46.422;18.772;2023-07-16T12:35:29;8.50;;;5.30;;
45198;SDS011;30941;46.422;18.772;2023-07-16T12:37:55;9.05;;;5.53;;
45198;SDS011;30941;46.422;18.772;2023-07-16T12:40:23;8.95;;;6.03;;
45198;SDS011;30941;46.422;18.772;2023-07-16T12:42:50;7.70;;;5.45;;
45198;SDS011;30941;46.422;18.772;2023-07-16T12:45:15;8.82;;;4.95;;
45198;SDS011;30941;46.422;18.772;2023-07-16T12:47:40;9.77;;;5.68;;
45198;SDS011;30941;46.422;18.772;2023-07-16T12:50:07;7.45;;;5.28;;
45198;SDS011;30941;46.422;18.772;2023-07-16T12:52:32;6.68;;;4.97;;
45198;SDS011;30941;46.422;18.772;2023-07-16T12:54:58;6.85;;;5.15;;
45198;SDS011;30941;46.422;18.772;2023-07-16T12:57:23;9.02;;;5.60;;
45198;SDS011;30941;46.422;18.772;2023-07-16T12:59:49;9.50;;;5.45;;
45198;SDS011;30941;46.422;18.772;2023-07-16T13:02:14;8.82;;;5.80;;
45198;SDS011;30941;46.422;18.772;2023-07-16T13:04:39;6.53;;;5.30;;
45198;SDS011;30941;46.422;18.772;2023-07-16T13:07:06;8.98;;;5.75;;
45198;SDS011;30941;46.422;18.772;2023-07-16T13:09:31;8.40;;;5.22;;
45198;SDS011;30941;46.422;18.772;2023-07-16T13:11:57;6.97;;;5.13;;
45198;SDS011;30941;46.422;18.772;2023-07-16T13:14:22;8.25;;;5.32;;
45198;SDS011;30941;46.422;18.772;2023-07-16T13:16:48;6.85;;;4.65;;
45198;SDS011;30941;46.422;18.772;2023-07-16T13:19:13;7.38;;;5.25;;
45198;SDS011;30941;46.422;18.772;2023-07-16T13:21:39;12.98;;;5.10;;
45198;SDS011;30941;46.422;18.772;2023-07-16T13:24:05;10.27;;;5.50;;
45198;SDS011;30941;46.422;18.772;2023-07-16T13:26:31;8.65;;;4.97;;
45198;SDS011;30941;46.422;18.772;2023-07-16T13:28:57;10.05;;;5.55;;
45198;SDS011;30941;46.422;18.772;2023-07-16T13:31:23;10.80;;;5.43;;
45198;SDS011;30941;46.422;18.772;2023-07-16T13:33:49;9.13;;;5.30;;
45198;SDS011;30941;46.422;18.772;2023-07-16T13:36:14;8.15;;;5.13;;
45198;SDS011;30941;46.422;18.772;2023-07-16T13:38:40;8.10;;;5.07;;
45198;SDS011;30941;46.422;18.772;2023-07-16T13:41:05;9.70;;;4.93;;
45198;SDS011;30941;46.422;18.772;2023-07-16T13:43:31;9.10;;;5.38;;
45198;SDS011;30941;46.422;18.772;2023-07-16T13:45:57;8.80;;;6.15;;
45198;SDS011;30941;46.422;18.772;2023-07-16T13:48:22;7.03;;;5.30;;
45198;SDS011;30941;46.422;18.772;2023-07-16T13:50:48;7.45;;;5.00;;
45198;SDS011;30941;46.422;18.772;2023-07-16T13:53:13;11.63;;;5.53;;
45198;SDS011;30941;46.422;18.772;2023-07-16T13:55:40;7.45;;;5.00;;
45198;SDS011;30941;46.422;18.772;2023-07-16T13:58:05;6.65;;;4.97;;
45198;SDS011;30941;46.422;18.772;2023-07-16T14:00:31;11.65;;;5.95;;
45198;SDS011;30941;46.422;18.772;2023-07-16T14:02:57;8.70;;;5.32;;
45198;SDS011;30941;46.422;18.772;2023-07-16T14:05:22;8.20;;;5.03;;
45198;SDS011;30941;46.422;18.772;2023-07-16T14:07:48;9.27;;;5.13;;
45198;SDS011;30941;46.422;18.772;2023-07-16T14:10:15;8.60;;;5.13;;
45198;SDS011;30941;46.422;18.772;2023-07-16T14:12:41;7.50;;;5.18;;
45198;SDS011;30941;46.422;18.772;2023-07-16T14:15:07;8.27;;;5.70;;
45198;SDS011;30941;46.422;18.772;2023-07-16T14:17:32;8.02;;;5.43;;
45198;SDS011;30941;46.422;18.772;2023-07-16T14:19:58;10.38;;;5.50;;
45198;SDS011;30941;46.422;18.772;2023-07-16T14:22:24;8.68;;;4.72;;
45198;SDS011;30941;46.422;18.772;2023-07-16T14:24:52;7.93;;;5.47;;
45198;SDS011;30941;46.422;18.772;2023-07-16T14:27:18;9.77;;;4.82;;
45198;SDS011;30941;46.422;18.772;2023-07-16T14:29:45;10.55;;;5.97;;